createdAt,value
2023-03-31T00:02:13.309Z,5.57
2023-03-31T00:04:45.937Z,5.60
2023-03-31T00:07:14.766Z,5.20
2023-03-31T00:09:45.849Z,5.18
2023-03-31T00:12:14.566Z,5.00
2023-03-31T00:14:41.662Z,5.20
2023-03-31T00:17:09.872Z,5.13
2023-03-31T00:19:37.127Z,5.18
2023-03-31T00:22:05.232Z,4.93
2023-03-31T00:24:33.049Z,4.85
2023-03-31T00:27:01.070Z,5.13
2023-03-31T00:29:28.236Z,4.68
2023-03-31T00:31:55.457Z,6.30
2023-03-31T00:34:22.141Z,5.15
2023-03-31T00:36:48.854Z,5.85
2023-03-31T00:39:18.323Z,4.82
2023-03-31T00:41:45.384Z,4.70
2023-03-31T00:44:13.580Z,4.80
2023-03-31T00:47:04.670Z,5.05
2023-03-31T00:49:45.521Z,5.15
2023-03-31T00:52:23.467Z,5.00
2023-03-31T00:55:00.626Z,5.07
2023-03-31T00:57:29.058Z,5.40
2023-03-31T01:00:16.854Z,5.50
2023-03-31T01:02:51.515Z,5.25
2023-03-31T01:05:21.458Z,5.00
2023-03-31T01:07:50.612Z,5.35
2023-03-31T01:10:17.947Z,5.65
2023-03-31T01:12:48.709Z,5.45
2023-03-31T01:15:15.657Z,5.53
2023-03-31T01:17:47.475Z,5.50
2023-03-31T01:20:23.214Z,5.30
2023-03-31T01:23:11.814Z,5.70
2023-03-31T01:26:16.236Z,5.30
2023-03-31T01:29:05.982Z,5.75
2023-03-31T01:32:24.125Z,6.68
2023-03-31T01:35:19.524Z,6.10
2023-03-31T01:37:52.028Z,5.43
2023-03-31T01:40:50.541Z,5.70
2023-03-31T01:43:26.398Z,5.43
2023-03-31T01:46:14.620Z,5.93
2023-03-31T01:49:11.661Z,5.40
2023-03-31T01:51:47.444Z,6.13
2023-03-31T01:54:22.474Z,5.60
2023-03-31T01:56:58.335Z,5.15
2023-03-31T01:59:34.466Z,6.40
2023-03-31T02:02:08.962Z,5.45
2023-03-31T02:04:42.372Z,5.40
2023-03-31T02:07:29.695Z,6.00
2023-03-31T02:10:01.655Z,5.68
2023-03-31T02:12:32.459Z,7.43
2023-03-31T02:15:03.426Z,5.35
2023-03-31T02:17:30.650Z,5.55
2023-03-31T02:19:59.832Z,5.85
2023-03-31T02:22:31.320Z,4.93
2023-03-31T02:25:01.152Z,5.60
2023-03-31T02:27:37.433Z,7.20
2023-03-31T02:30:05.111Z,5.05
2023-03-31T02:32:37.623Z,5.70
2023-03-31T02:35:07.013Z,5.43
2023-03-31T02:37:34.088Z,5.53
2023-03-31T02:40:06.388Z,5.82
2023-03-31T02:42:33.159Z,5.80
2023-03-31T02:45:06.120Z,5.85
2023-03-31T02:47:33.558Z,5.68
2023-03-31T02:50:02.707Z,5.60
2023-03-31T02:52:50.526Z,6.00
2023-03-31T02:55:37.548Z,5.80
2023-03-31T02:58:18.153Z,5.40
2023-03-31T03:01:07.482Z,7.05
2023-03-31T03:03:49.638Z,5.32
2023-03-31T03:06:39.294Z,5.30
2023-03-31T03:09:15.216Z,5.72
2023-03-31T03:12:03.796Z,5.82
2023-03-31T03:14:56.037Z,6.40
2023-03-31T03:17:30.261Z,5.50
2023-03-31T03:20:00.603Z,5.32
2023-03-31T03:22:27.823Z,5.78
2023-03-31T03:24:54.515Z,6.00
2023-03-31T03:27:24.514Z,5.45
2023-03-31T03:29:51.375Z,5.60
2023-03-31T03:32:18.242Z,6.15
2023-03-31T03:34:44.935Z,5.53
2023-03-31T03:37:11.640Z,5.43
2023-03-31T03:39:38.267Z,6.20
2023-03-31T03:42:05.294Z,5.70
2023-03-31T03:44:31.949Z,5.05
2023-03-31T03:46:58.606Z,5.82
2023-03-31T03:49:25.267Z,5.10
2023-03-31T03:51:51.901Z,5.05
2023-03-31T03:54:18.785Z,5.35
2023-03-31T03:56:45.642Z,5.32
2023-03-31T03:59:12.472Z,5.20
2023-03-31T04:01:39.365Z,5.30
2023-03-31T04:04:06.232Z,5.55
2023-03-31T04:06:32.895Z,5.40
2023-03-31T04:08:59.704Z,5.30
2023-03-31T04:11:26.491Z,5.25
2023-03-31T04:13:53.182Z,4.95
2023-03-31T04:16:20.538Z,5.30
2023-03-31T04:18:48.770Z,7.88
2023-03-31T04:21:22.852Z,5.85
2023-03-31T04:23:58.927Z,5.65
2023-03-31T04:26:38.927Z,5.40
2023-03-31T04:29:12.933Z,5.45
2023-03-31T04:31:42.887Z,5.03
2023-03-31T04:34:14.148Z,5.82
2023-03-31T04:36:50.517Z,5.35
2023-03-31T04:39:26.628Z,5.65
2023-03-31T04:41:54.091Z,5.10
2023-03-31T04:44:20.742Z,5.28
2023-03-31T04:46:47.386Z,5.80
2023-03-31T04:49:14.087Z,5.13
2023-03-31T04:51:41.022Z,4.80
2023-03-31T04:54:07.732Z,5.10
2023-03-31T04:56:34.445Z,4.75
2023-03-31T04:59:01.159Z,4.82
2023-03-31T05:01:27.888Z,4.70
2023-03-31T05:03:54.540Z,5.20
2023-03-31T05:06:21.128Z,5.50
2023-03-31T05:08:47.757Z,6.43
2023-03-31T05:11:14.379Z,5.07
2023-03-31T05:13:41.273Z,5.05
2023-03-31T05:16:09.799Z,4.95
2023-03-31T05:18:36.818Z,5.28
2023-03-31T05:21:14.152Z,5.38
2023-03-31T05:23:40.962Z,4.68
2023-03-31T05:26:08.673Z,5.40
2023-03-31T05:28:36.166Z,5.20
2023-03-31T05:31:04.454Z,6.50
2023-03-31T05:33:31.406Z,5.82
2023-03-31T05:36:00.278Z,5.40
2023-03-31T05:38:31.676Z,5.07
2023-03-31T05:40:58.450Z,5.10
2023-03-31T05:43:25.265Z,5.75
2023-03-31T05:45:52.045Z,5.50
2023-03-31T05:48:18.854Z,5.32
2023-03-31T05:50:45.702Z,4.93
2023-03-31T05:53:12.318Z,5.85
2023-03-31T05:55:39.383Z,6.38
2023-03-31T05:58:06.833Z,5.40
2023-03-31T06:00:33.693Z,5.90
2023-03-31T06:03:00.419Z,5.90
2023-03-31T06:05:27.634Z,6.07
2023-03-31T06:07:54.258Z,5.63
2023-03-31T06:10:20.881Z,5.40
2023-03-31T06:12:47.521Z,7.47
2023-03-31T06:15:14.219Z,5.70
2023-03-31T06:17:41.094Z,7.05
2023-03-31T06:20:24.087Z,7.70
2023-03-31T06:22:53.513Z,5.90
2023-03-31T06:25:20.207Z,6.53
2023-03-31T06:27:46.843Z,6.10
2023-03-31T06:30:13.649Z,6.18
2023-03-31T06:32:40.474Z,6.10
2023-03-31T06:35:07.433Z,5.80
2023-03-31T06:37:34.059Z,6.13
2023-03-31T06:40:00.798Z,6.70
2023-03-31T06:42:27.407Z,6.10
2023-03-31T06:44:55.861Z,5.68
2023-03-31T06:47:22.658Z,6.63
2023-03-31T06:49:49.627Z,6.50
2023-03-31T06:52:16.464Z,6.82
2023-03-31T06:54:43.267Z,7.00
2023-03-31T06:57:10.031Z,6.63
2023-03-31T06:59:36.770Z,6.35
2023-03-31T07:02:03.717Z,6.93
2023-03-31T07:04:30.436Z,6.40
2023-03-31T07:06:59.275Z,7.90
2023-03-31T07:09:25.985Z,6.30
2023-03-31T07:11:52.730Z,8.20
2023-03-31T07:14:19.401Z,6.65
2023-03-31T07:16:46.177Z,6.55
2023-03-31T07:19:13.461Z,6.70
2023-03-31T07:21:40.076Z,6.80
2023-03-31T07:24:07.058Z,7.60
2023-03-31T07:26:33.966Z,6.72
2023-03-31T07:29:00.655Z,7.22
2023-03-31T07:31:27.526Z,8.70
2023-03-31T07:33:54.141Z,7.45
2023-03-31T07:36:21.615Z,7.28
2023-03-31T07:38:49.630Z,7.47
2023-03-31T07:41:19.010Z,6.55
2023-03-31T07:43:46.510Z,6.90
2023-03-31T07:46:18.975Z,6.97
2023-03-31T07:48:47.123Z,7.13
2023-03-31T07:51:16.413Z,7.15
2023-03-31T07:53:43.197Z,6.88
2023-03-31T07:56:09.997Z,7.78
2023-03-31T07:58:36.631Z,7.15
2023-03-31T08:01:03.905Z,7.75
2023-03-31T08:03:32.014Z,7.55
2023-03-31T08:05:58.859Z,6.93
2023-03-31T08:08:26.208Z,7.57
2023-03-31T08:10:53.176Z,6.93
2023-03-31T08:13:19.938Z,6.63
2023-03-31T08:15:46.753Z,6.22
2023-03-31T08:18:13.466Z,6.55
2023-03-31T08:20:40.088Z,6.53
2023-03-31T08:23:09.156Z,6.18
2023-03-31T08:25:35.826Z,5.82
2023-03-31T08:28:02.478Z,6.22
2023-03-31T08:30:29.129Z,5.82
2023-03-31T08:32:56.530Z,6.70
2023-03-31T08:35:23.204Z,5.60
2023-03-31T08:37:49.773Z,5.95
2023-03-31T08:40:21.325Z,5.45
2023-03-31T08:42:53.549Z,5.65
2023-03-31T08:45:24.913Z,5.80
2023-03-31T08:48:07.939Z,5.60
2023-03-31T08:50:36.745Z,5.53
2023-03-31T08:53:08.004Z,5.18
2023-03-31T08:55:48.439Z,4.43
2023-03-31T08:58:17.756Z,4.25
2023-03-31T09:00:54.383Z,4.15
2023-03-31T09:03:37.553Z,4.70
2023-03-31T09:06:30.719Z,4.13
2023-03-31T09:09:02.305Z,4.05
2023-03-31T09:11:55.063Z,4.50
2023-03-31T09:14:47.318Z,4.60
2023-03-31T09:17:38.910Z,5.18
2023-03-31T09:20:13.380Z,5.00
2023-03-31T09:22:48.804Z,5.25
2023-03-31T09:25:23.522Z,5.50
2023-03-31T09:27:53.121Z,5.18
2023-03-31T09:30:26.306Z,5.15
2023-03-31T09:33:04.726Z,5.60
2023-03-31T09:35:33.583Z,5.82
2023-03-31T09:38:00.351Z,5.60
2023-03-31T09:40:28.358Z,5.20
2023-03-31T09:43:00.362Z,5.40
2023-03-31T09:45:27.623Z,5.18
2023-03-31T09:47:56.988Z,5.90
2023-03-31T09:50:25.106Z,5.25
2023-03-31T09:53:00.738Z,5.30
2023-03-31T09:55:52.458Z,5.00
2023-03-31T09:58:20.809Z,5.03
2023-03-31T10:01:06.466Z,7.10
2023-03-31T10:03:36.960Z,6.13
2023-03-31T10:06:11.002Z,5.95
2023-03-31T10:09:07.148Z,5.97
2023-03-31T10:11:33.995Z,5.10
2023-03-31T10:14:15.664Z,6.00
2023-03-31T10:16:48.484Z,5.22
2023-03-31T10:19:23.977Z,5.45
2023-03-31T10:21:59.423Z,6.45
2023-03-31T10:24:27.728Z,4.55
2023-03-31T10:26:57.079Z,4.45
2023-03-31T10:29:31.979Z,4.90
2023-03-31T10:32:22.140Z,4.50
2023-03-31T10:34:49.102Z,4.60
2023-03-31T10:37:22.470Z,4.53
2023-03-31T10:40:01.797Z,4.45
2023-03-31T10:42:28.880Z,4.47
2023-03-31T10:45:37.406Z,6.57
2023-03-31T10:48:05.095Z,4.50
2023-03-31T10:50:35.133Z,4.40
2023-03-31T10:53:17.036Z,4.97
2023-03-31T10:55:57.073Z,4.93
2023-03-31T10:58:54.989Z,4.60
2023-03-31T11:01:53.954Z,4.57
2023-03-31T11:04:39.479Z,4.75
2023-03-31T11:07:17.392Z,4.50
2023-03-31T11:10:11.626Z,4.57
2023-03-31T11:12:56.873Z,4.50
2023-03-31T11:15:51.363Z,5.18
2023-03-31T11:18:55.875Z,4.95
2023-03-31T11:21:53.318Z,4.40
2023-03-31T11:24:32.829Z,5.22
2023-03-31T11:27:24.078Z,4.70
2023-03-31T11:30:15.434Z,5.20
2023-03-31T11:33:00.675Z,4.90
2023-03-31T11:35:46.289Z,5.15
2023-03-31T11:38:34.414Z,4.60
2023-03-31T11:41:21.476Z,5.40
2023-03-31T11:44:00.757Z,5.35
2023-03-31T11:46:48.222Z,4.93
2023-03-31T11:49:19.002Z,5.00
2023-03-31T11:52:02.392Z,4.95
2023-03-31T11:54:39.029Z,4.38
2023-03-31T11:57:14.693Z,4.93
2023-03-31T11:59:44.136Z,5.20
2023-03-31T12:02:30.113Z,4.40
2023-03-31T12:04:58.309Z,4.68
2023-03-31T12:07:45.734Z,4.50
2023-03-31T12:10:22.056Z,4.95
2023-03-31T12:13:16.527Z,4.75
2023-03-31T12:15:47.703Z,4.60
2023-03-31T12:18:22.576Z,4.47
2023-03-31T12:20:56.315Z,5.10
2023-03-31T12:23:27.151Z,4.75
2023-03-31T12:26:31.557Z,4.45
2023-03-31T12:29:03.247Z,4.43
2023-03-31T12:31:33.106Z,5.00
2023-03-31T12:34:05.095Z,4.35
2023-03-31T12:36:57.312Z,5.03
2023-03-31T12:39:39.859Z,4.57
2023-03-31T12:42:25.212Z,4.00
2023-03-31T12:45:21.695Z,5.50
2023-03-31T12:48:19.087Z,4.50
2023-03-31T12:51:17.575Z,4.20
2023-03-31T12:53:57.325Z,4.30
2023-03-31T12:56:25.002Z,4.55
2023-03-31T12:58:51.616Z,4.32
2023-03-31T13:01:22.713Z,4.47
2023-03-31T13:04:11.133Z,4.28
2023-03-31T13:06:37.860Z,4.18
2023-03-31T13:09:33.414Z,4.40
2023-03-31T13:12:08.219Z,4.00
2023-03-31T13:14:40.217Z,3.90
2023-03-31T13:17:21.523Z,4.10
2023-03-31T13:19:48.881Z,3.78
2023-03-31T13:22:34.843Z,4.03
2023-03-31T13:25:44.080Z,3.63
2023-03-31T13:28:13.757Z,3.70
2023-03-31T13:30:40.383Z,3.75
2023-03-31T13:33:12.878Z,3.80
2023-03-31T13:35:42.662Z,3.90
2023-03-31T13:38:12.029Z,3.85
2023-03-31T13:41:06.668Z,4.00
2023-03-31T13:44:10.740Z,3.97
2023-03-31T13:46:51.193Z,3.80
2023-03-31T13:49:36.525Z,3.83
2023-03-31T13:52:05.367Z,3.97
2023-03-31T13:54:50.515Z,4.07
2023-03-31T13:57:38.331Z,4.20
2023-03-31T14:00:58.973Z,3.90
2023-03-31T14:03:44.398Z,4.10
2023-03-31T14:06:36.096Z,3.85
2023-03-31T14:09:15.881Z,3.60
2023-03-31T14:11:42.548Z,3.85
2023-03-31T14:14:13.469Z,4.10
2023-03-31T14:16:50.981Z,3.70
2023-03-31T14:19:17.556Z,3.70
2023-03-31T14:21:54.931Z,4.20
2023-03-31T14:24:46.157Z,3.85
2023-03-31T14:27:30.811Z,4.50
2023-03-31T14:30:27.082Z,4.10
2023-03-31T14:33:19.094Z,3.70
2023-03-31T14:36:10.839Z,3.97
2023-03-31T14:38:37.719Z,3.80
2023-03-31T14:41:04.675Z,5.35
2023-03-31T14:43:40.002Z,3.72
2023-03-31T14:46:09.089Z,4.10
2023-03-31T14:48:45.086Z,4.05
2023-03-31T14:51:14.377Z,4.53
2023-03-31T14:53:41.246Z,4.00
2023-03-31T14:56:12.302Z,4.40
2023-03-31T14:58:51.564Z,4.50
2023-03-31T15:01:25.305Z,4.68
2023-03-31T15:03:53.809Z,5.00
2023-03-31T15:06:20.773Z,4.18
2023-03-31T15:08:47.695Z,4.20
2023-03-31T15:11:20.799Z,4.03
2023-03-31T15:14:03.588Z,3.97
2023-03-31T15:16:36.458Z,4.20
2023-03-31T15:19:11.736Z,3.92
2023-03-31T15:21:39.097Z,4.20
2023-03-31T15:24:06.677Z,4.20
2023-03-31T15:26:42.099Z,4.00
2023-03-31T15:29:22.264Z,4.68
2023-03-31T15:31:49.446Z,4.25
2023-03-31T15:34:28.185Z,4.22
2023-03-31T15:36:58.208Z,4.30
2023-03-31T15:39:32.284Z,4.30
2023-03-31T15:42:02.467Z,4.18
2023-03-31T15:44:48.405Z,4.10
2023-03-31T15:47:20.379Z,4.20
2023-03-31T15:49:57.029Z,4.13
2023-03-31T15:52:36.654Z,5.05
2023-03-31T15:55:25.525Z,4.25
2023-03-31T15:57:54.182Z,4.57
2023-03-31T16:00:39.779Z,5.65
2023-03-31T16:03:15.484Z,4.40
2023-03-31T16:05:55.817Z,4.10
2023-03-31T16:08:32.534Z,4.50
2023-03-31T16:11:04.406Z,4.65
2023-03-31T16:13:33.035Z,4.28
2023-03-31T16:16:00.175Z,6.15
2023-03-31T16:18:42.494Z,4.60
2023-03-31T16:21:09.861Z,5.50
2023-03-31T16:23:41.160Z,4.80
2023-03-31T16:26:08.640Z,4.70
2023-03-31T16:28:37.297Z,4.70
2023-03-31T16:31:05.905Z,5.03
2023-03-31T16:33:54.232Z,4.80
2023-03-31T16:36:21.040Z,4.57
2023-03-31T16:38:47.689Z,4.88
2023-03-31T16:41:17.470Z,4.90
2023-03-31T16:43:45.592Z,4.75
2023-03-31T16:46:12.391Z,4.57
2023-03-31T16:48:39.180Z,4.60
2023-03-31T16:51:05.824Z,4.55
2023-03-31T16:53:34.477Z,5.00
2023-03-31T16:56:01.969Z,5.10
2023-03-31T16:58:29.374Z,5.00
2023-03-31T17:00:57.165Z,5.18
2023-03-31T17:03:25.002Z,4.95
2023-03-31T17:05:58.604Z,4.97
2023-03-31T17:08:27.790Z,5.80
2023-03-31T17:11:03.421Z,4.90
2023-03-31T17:13:32.432Z,5.20
2023-03-31T17:16:13.203Z,5.38
2023-03-31T17:18:45.938Z,4.80
2023-03-31T17:21:15.009Z,5.20
2023-03-31T17:23:42.559Z,4.80
2023-03-31T17:26:10.542Z,5.88
2023-03-31T17:28:37.579Z,4.95
2023-03-31T17:31:12.608Z,4.70
2023-03-31T17:33:40.038Z,5.30
2023-03-31T17:36:07.035Z,5.40
2023-03-31T17:38:34.593Z,4.55
2023-03-31T17:41:09.241Z,5.15
2023-03-31T17:43:36.239Z,6.25
2023-03-31T17:46:09.891Z,5.40
2023-03-31T17:48:38.592Z,5.22
2023-03-31T17:51:07.702Z,5.15
2023-03-31T17:53:35.667Z,6.15
2023-03-31T17:56:04.240Z,5.72
2023-03-31T17:58:33.605Z,5.20
2023-03-31T18:01:00.595Z,5.72
2023-03-31T18:03:30.584Z,5.47
2023-03-31T18:06:02.117Z,5.35
2023-03-31T18:08:30.010Z,5.88
2023-03-31T18:10:56.735Z,5.63
2023-03-31T18:13:24.256Z,5.60
2023-03-31T18:15:52.871Z,5.50
2023-03-31T18:18:20.646Z,5.15
2023-03-31T18:20:47.484Z,6.20
2023-03-31T18:23:14.830Z,5.38
2023-03-31T18:25:47.768Z,4.78
2023-03-31T18:28:16.153Z,4.93
2023-03-31T18:30:43.551Z,4.80
2023-03-31T18:33:11.048Z,4.95
2023-03-31T18:35:38.149Z,4.70
2023-03-31T18:38:05.499Z,5.10
2023-03-31T18:40:32.292Z,5.35
2023-03-31T18:42:59.251Z,5.57
2023-03-31T18:45:28.005Z,5.25
2023-03-31T18:47:54.869Z,5.18
2023-03-31T18:50:23.243Z,5.28
2023-03-31T18:52:53.270Z,5.15
2023-03-31T18:55:20.838Z,4.90
2023-03-31T18:57:47.690Z,4.53
2023-03-31T19:00:14.918Z,5.10
2023-03-31T19:02:41.969Z,4.43
2023-03-31T19:05:09.227Z,4.50
2023-03-31T19:07:35.897Z,4.47
2023-03-31T19:10:02.613Z,4.97
2023-03-31T19:12:29.275Z,4.57
2023-03-31T19:14:56.032Z,4.60
2023-03-31T19:17:22.763Z,4.78
2023-03-31T19:19:50.197Z,4.70
2023-03-31T19:22:17.214Z,5.00
2023-03-31T19:24:45.173Z,5.18
2023-03-31T19:27:12.677Z,4.68
2023-03-31T19:29:39.366Z,4.90
2023-03-31T19:32:06.274Z,4.90
2023-03-31T19:34:33.756Z,4.75
2023-03-31T19:37:01.960Z,4.70
2023-03-31T19:39:28.655Z,4.88
2023-03-31T19:41:55.657Z,4.90
2023-03-31T19:44:22.285Z,4.80
2023-03-31T19:46:48.996Z,4.97
2023-03-31T19:49:15.750Z,4.57
2023-03-31T19:51:42.497Z,4.95
2023-03-31T19:54:10.837Z,4.80
2023-03-31T19:56:38.193Z,4.80
2023-03-31T19:59:05.443Z,4.60
2023-03-31T20:01:32.984Z,5.00
2023-03-31T20:04:00.258Z,4.80
2023-03-31T20:06:29.727Z,4.72
2023-03-31T20:08:59.333Z,4.70
2023-03-31T20:11:27.904Z,4.90
2023-03-31T20:13:54.984Z,5.30
2023-03-31T20:16:24.422Z,5.10
2023-03-31T20:18:53.930Z,4.47
2023-03-31T20:21:22.633Z,4.68
2023-03-31T20:23:49.493Z,4.60
2023-03-31T20:26:18.670Z,4.60
2023-03-31T20:28:46.677Z,4.85
2023-03-31T20:31:22.415Z,4.95
2023-03-31T20:33:49.295Z,5.57
2023-03-31T20:36:18.715Z,5.40
2023-03-31T20:38:48.238Z,4.70
2023-03-31T20:41:15.704Z,4.80
2023-03-31T20:43:42.484Z,4.78
2023-03-31T20:46:09.695Z,5.07
2023-03-31T20:48:42.238Z,4.40
2023-03-31T20:51:11.533Z,4.60
2023-03-31T20:53:42.109Z,4.40
2023-03-31T20:56:17.379Z,5.00
2023-03-31T20:58:44.834Z,4.97
2023-03-31T21:01:12.424Z,4.88
2023-03-31T21:03:39.651Z,4.80
2023-03-31T21:06:11.626Z,5.10
2023-03-31T21:08:39.641Z,4.65
2023-03-31T21:11:07.265Z,4.60
2023-03-31T21:13:34.574Z,4.75
2023-03-31T21:16:01.570Z,4.65
2023-03-31T21:18:33.152Z,4.70
2023-03-31T21:21:05.912Z,4.40
2023-03-31T21:23:32.655Z,5.03
2023-03-31T21:26:01.633Z,4.75
2023-03-31T21:28:30.922Z,4.82
2023-03-31T21:31:06.314Z,4.75
2023-03-31T21:33:34.009Z,5.30
2023-03-31T21:36:01.163Z,4.93
2023-03-31T21:38:28.579Z,5.00
2023-03-31T21:40:57.890Z,4.70
2023-03-31T21:43:25.951Z,4.90
2023-03-31T21:45:57.107Z,4.80
2023-03-31T21:48:26.233Z,4.85
2023-03-31T21:50:54.788Z,4.63
2023-03-31T21:53:22.839Z,4.78
2023-03-31T21:55:53.488Z,5.43
2023-03-31T21:58:20.115Z,4.97
2023-03-31T22:00:47.577Z,5.10
2023-03-31T22:03:26.422Z,4.68
2023-03-31T22:05:58.610Z,5.20
2023-03-31T22:08:27.038Z,5.07
2023-03-31T22:10:54.930Z,4.80
2023-03-31T22:13:23.045Z,4.78
2023-03-31T22:15:49.706Z,4.82
2023-03-31T22:18:19.609Z,5.03
2023-03-31T22:20:46.628Z,4.80
2023-03-31T22:23:13.324Z,4.75
2023-03-31T22:25:39.955Z,5.60
2023-03-31T22:28:07.492Z,4.65
2023-03-31T22:30:34.665Z,4.70
2023-03-31T22:33:01.899Z,4.80
2023-03-31T22:35:29.073Z,5.10
2023-03-31T22:37:55.786Z,4.65
2023-03-31T22:40:23.687Z,6.78
2023-03-31T22:42:50.495Z,5.05
2023-03-31T22:45:17.265Z,5.63
2023-03-31T22:47:44.061Z,5.00
2023-03-31T22:50:11.215Z,4.70
2023-03-31T22:52:38.080Z,5.13
2023-03-31T22:55:06.148Z,5.00
2023-03-31T22:57:33.614Z,4.90
2023-03-31T23:00:00.661Z,4.70
2023-03-31T23:02:27.371Z,4.72
2023-03-31T23:04:54.040Z,4.78
2023-03-31T23:07:21.873Z,4.70
2023-03-31T23:09:48.773Z,4.82
2023-03-31T23:12:15.889Z,4.63
2023-03-31T23:14:42.571Z,4.75
2023-03-31T23:17:09.237Z,4.80
2023-03-31T23:19:37.730Z,4.97
2023-03-31T23:22:04.384Z,4.85
2023-03-31T23:24:30.997Z,5.10
2023-03-31T23:26:57.692Z,5.18
2023-03-31T23:29:24.339Z,5.00
2023-03-31T23:31:51.407Z,5.20
2023-03-31T23:34:18.074Z,5.25
2023-03-31T23:36:44.699Z,5.35
2023-03-31T23:39:11.333Z,4.80
2023-03-31T23:41:38.095Z,5.32
2023-03-31T23:44:05.234Z,5.20
2023-03-31T23:46:33.476Z,4.72
2023-03-31T23:49:02.537Z,4.95
2023-03-31T23:51:29.142Z,5.15
2023-03-31T23:53:55.843Z,5.32
2023-03-31T23:56:22.602Z,4.95
2023-03-31T23:58:49.220Z,5.68
